createdAt,value
2019-03-05T00:17:22.548Z,75.13
2019-03-05T00:19:54.477Z,75.39
2019-03-05T00:22:25.265Z,75.44
2019-03-05T00:25:06.073Z,75.76
2019-03-05T00:27:48.369Z,75.81
2019-03-05T00:30:23.185Z,75.89
2019-03-05T00:33:01.525Z,76.08
2019-03-05T00:35:47.374Z,75.73
2019-03-05T00:39:09.899Z,75.87
2019-03-05T00:43:26.259Z,75.74
2019-03-05T00:46:08.056Z,75.54
2019-03-05T00:48:53.583Z,75.77
2019-03-05T00:57:57.899Z,75.76
2019-03-05T01:04:51.439Z,74.49
2019-03-05T01:07:27.403Z,74.56
2019-03-05T01:09:57.643Z,74.71
2019-03-05T01:12:27.708Z,74.49
2019-03-05T01:14:59.103Z,74.48
2019-03-05T01:17:29.447Z,73.78
2019-03-05T01:20:01.992Z,73.37
2019-03-05T01:22:35.388Z,73.06
2019-03-05T01:25:04.654Z,73.03
2019-03-05T01:27:34.074Z,73.36
2019-03-05T01:30:08.421Z,73.21
2019-03-05T01:32:45.593Z,73.28
2019-03-05T01:35:24.814Z,73.53
2019-03-05T01:37:57.610Z,73.55
2019-03-05T01:40:34.078Z,73.54
2019-03-05T01:43:04.855Z,73.63
2019-03-05T01:45:37.062Z,73.52
2019-03-05T01:48:07.391Z,73.38
2019-03-05T01:50:40.042Z,73.37
2019-03-05T01:53:10.905Z,73.54
2019-03-05T01:55:44.295Z,73.60
2019-03-05T01:58:14.803Z,73.55
2019-03-05T02:00:44.445Z,73.49
2019-03-05T02:03:15.255Z,73.67
2019-03-05T02:05:45.971Z,73.55
2019-03-05T02:08:17.202Z,73.42
2019-03-05T02:10:54.330Z,73.51
2019-03-05T02:13:27.442Z,73.60
2019-03-05T02:15:59.479Z,73.87
2019-03-05T02:18:33.142Z,74.12
2019-03-05T02:21:03.305Z,74.61
2019-03-05T02:23:53.947Z,74.83
2019-03-05T02:26:51.728Z,74.81
2019-03-05T02:29:43.118Z,74.76
2019-03-05T02:33:30.759Z,74.26
2019-03-05T02:36:15.580Z,73.72
2019-03-05T02:39:55.484Z,73.67
2019-03-05T02:42:56.843Z,73.85
2019-03-05T02:45:42.495Z,73.73
2019-03-05T02:48:37.953Z,73.90
2019-03-05T02:51:27.711Z,74.30
2019-03-05T02:54:10.932Z,74.45
2019-03-05T03:03:22.448Z,74.59
2019-03-05T03:05:57.991Z,74.33
2019-03-05T03:08:30.232Z,74.66
2019-03-05T03:11:01.337Z,74.27
2019-03-05T03:13:33.023Z,74.01
2019-03-05T03:16:04.754Z,74.23
2019-03-05T03:18:34.068Z,73.88
2019-03-05T03:21:03.675Z,73.68
2019-03-05T03:23:47.194Z,73.88
2019-03-05T03:26:18.970Z,73.88
2019-03-05T03:28:55.579Z,73.66
2019-03-05T03:31:27.540Z,73.47
2019-03-05T03:33:58.178Z,73.24
2019-03-05T03:36:28.955Z,72.89
2019-03-05T03:38:58.588Z,73.13
2019-03-05T03:41:35.554Z,73.19
2019-03-05T03:44:10.706Z,73.22
2019-03-05T03:46:46.125Z,73.76
2019-03-05T03:49:17.419Z,73.83
2019-03-05T03:51:51.206Z,73.65
2019-03-05T03:54:18.572Z,73.76
2019-03-05T03:56:50.097Z,73.66
2019-03-05T03:59:20.248Z,73.53
2019-03-05T04:01:52.315Z,73.77
2019-03-05T04:07:39.637Z,73.72
2019-03-05T04:10:13.055Z,74.02
2019-03-05T04:12:45.014Z,73.83
2019-03-05T04:15:18.470Z,74.17
2019-03-05T04:17:50.604Z,74.22
2019-03-05T04:20:32.441Z,74.27
2019-03-05T04:23:04.048Z,74.36
2019-03-05T04:25:35.978Z,74.33
2019-03-05T04:28:10.408Z,74.32
2019-03-05T04:30:41.551Z,74.38
2019-03-05T04:33:11.464Z,74.47
2019-03-05T04:35:45.365Z,74.56
2019-03-05T04:38:16.052Z,74.57
2019-03-05T04:40:47.785Z,74.86
2019-03-05T04:43:19.300Z,74.95
2019-03-05T04:45:54.850Z,74.89
2019-03-05T04:48:27.077Z,74.69
2019-03-05T04:51:00.930Z,74.58
2019-03-05T04:53:36.656Z,74.80
2019-03-05T04:56:10.419Z,74.73
2019-03-05T04:58:45.959Z,74.46
2019-03-05T05:01:18.919Z,74.32
2019-03-05T05:03:53.855Z,74.70
2019-03-05T05:06:26.527Z,75.03
2019-03-05T05:08:59.873Z,74.80
2019-03-05T05:11:33.329Z,75.36
2019-03-05T05:14:04.599Z,75.16
2019-03-05T05:19:13.324Z,75.04
2019-03-05T05:21:48.348Z,75.09
2019-03-05T05:24:19.719Z,74.80
2019-03-05T05:26:51.643Z,74.96
2019-03-05T05:29:20.870Z,74.99
2019-03-05T05:31:53.557Z,74.87
2019-03-05T05:34:25.174Z,74.84
2019-03-05T05:36:55.097Z,74.73
2019-03-05T05:39:36.377Z,74.94
2019-03-05T05:42:06.993Z,74.74
2019-03-05T05:44:36.928Z,74.36
2019-03-05T05:47:06.833Z,74.45
2019-03-05T05:49:39.105Z,74.61
2019-03-05T05:52:10.693Z,74.46
2019-03-05T05:54:43.513Z,74.79
2019-03-05T05:57:15.244Z,74.60
2019-03-05T05:59:46.750Z,74.60
2019-03-05T06:02:23.336Z,74.86
2019-03-05T06:04:52.528Z,74.80
2019-03-05T06:07:23.852Z,74.98
2019-03-05T06:09:54.303Z,74.89
2019-03-05T06:15:08.039Z,74.56
2019-03-05T06:17:40.849Z,74.73
2019-03-05T06:20:12.832Z,74.65
2019-03-05T06:22:43.990Z,74.76
2019-03-05T06:25:13.263Z,74.73
2019-03-05T06:27:44.382Z,74.82
2019-03-05T06:30:17.241Z,75.14
2019-03-05T06:32:48.206Z,75.20
2019-03-05T06:35:23.676Z,75.22
2019-03-05T06:37:55.763Z,75.17
2019-03-05T06:40:29.565Z,75.00
2019-03-05T06:43:09.137Z,75.23
2019-03-05T06:45:43.992Z,75.16
2019-03-05T06:48:20.085Z,75.29
2019-03-05T06:50:53.175Z,75.06
2019-03-05T06:53:28.328Z,74.88
2019-03-05T06:56:02.857Z,74.70
2019-03-05T06:58:33.651Z,74.87
2019-03-05T07:01:09.228Z,75.03
2019-03-05T07:03:43.540Z,74.66
2019-03-05T07:06:25.963Z,74.68
2019-03-05T07:09:07.632Z,74.78
2019-03-05T07:11:49.944Z,74.86
2019-03-05T07:14:29.718Z,74.60
2019-03-05T07:17:07.254Z,75.10
2019-03-05T07:20:07.546Z,74.91
2019-03-05T07:22:51.427Z,74.87
2019-03-05T07:25:36.419Z,74.59
2019-03-05T07:28:08.106Z,74.50
2019-03-05T07:30:43.629Z,74.56
2019-03-05T07:33:21.144Z,74.36
2019-03-05T07:35:54.688Z,74.23
2019-03-05T07:38:24.713Z,74.21
2019-03-05T07:40:55.269Z,74.22
2019-03-05T07:43:36.380Z,74.62
2019-03-05T07:46:01.027Z,74.07
2019-03-05T07:48:32.784Z,74.05
2019-03-05T07:51:11.000Z,73.67
2019-03-05T07:53:43.032Z,73.52
2019-03-05T07:56:13.759Z,73.15
2019-03-05T07:58:46.175Z,73.19
2019-03-05T08:01:22.692Z,73.44
2019-03-05T08:03:53.684Z,73.77
2019-03-05T08:06:25.465Z,74.21
2019-03-05T08:09:09.092Z,74.25
2019-03-05T08:11:43.692Z,74.52
2019-03-05T08:15:31.721Z,74.40
2019-03-05T08:18:05.832Z,74.49
2019-03-05T08:20:38.016Z,74.27
2019-03-05T08:23:10.373Z,74.24
2019-03-05T08:25:44.923Z,74.58
2019-03-05T08:28:27.515Z,74.45
2019-03-05T08:31:01.205Z,74.59
2019-03-05T08:33:33.576Z,74.58
2019-03-05T08:36:05.564Z,74.74
2019-03-05T08:38:38.012Z,74.85
2019-03-05T08:41:10.593Z,74.72
2019-03-05T08:43:45.790Z,74.77
2019-03-05T08:46:19.252Z,74.92
2019-03-05T08:48:51.238Z,74.84
2019-03-05T08:51:22.415Z,74.75
2019-03-05T08:53:58.597Z,74.85
2019-03-05T08:56:37.604Z,74.81
2019-03-05T08:59:07.752Z,74.78
2019-03-05T09:01:42.924Z,74.61
2019-03-05T09:04:17.690Z,74.42
2019-03-05T09:06:50.030Z,74.17
2019-03-05T09:09:19.556Z,74.08
2019-03-05T09:11:50.252Z,74.31
2019-03-05T09:14:21.264Z,74.28
2019-03-05T09:16:52.484Z,74.29
2019-03-05T09:19:24.345Z,74.14
2019-03-05T09:21:54.462Z,74.12
2019-03-05T09:24:26.550Z,74.05
2019-03-05T09:27:01.712Z,73.77
2019-03-05T09:29:35.301Z,73.48
2019-03-05T09:32:04.862Z,73.38
2019-03-05T09:34:38.625Z,73.12
2019-03-05T09:37:14.863Z,73.24
2019-03-05T09:39:46.971Z,73.37
2019-03-05T09:42:23.629Z,73.45
2019-03-05T09:44:59.214Z,73.73
2019-03-05T09:47:33.372Z,73.79
2019-03-05T09:50:07.588Z,73.99
2019-03-05T09:52:54.464Z,73.88
2019-03-05T09:55:19.941Z,73.99
2019-03-05T09:58:07.512Z,73.94
2019-03-05T10:03:10.260Z,74.07
2019-03-05T10:05:40.098Z,74.23
2019-03-05T10:08:12.479Z,74.04
2019-03-05T10:13:25.574Z,74.05
2019-03-05T10:15:59.174Z,73.78
2019-03-05T10:18:31.612Z,73.59
2019-03-05T10:21:03.748Z,73.60
2019-03-05T10:23:35.875Z,73.62
2019-03-05T10:26:11.433Z,73.31
2019-03-05T10:28:41.809Z,73.17
2019-03-05T10:31:13.148Z,73.16
2019-03-05T10:33:44.482Z,73.12
2019-03-05T10:36:16.546Z,72.70
2019-03-05T10:38:56.957Z,72.52
2019-03-05T10:41:24.683Z,72.52
2019-03-05T10:44:03.834Z,72.38
2019-03-05T10:46:41.204Z,72.18
2019-03-05T10:49:13.917Z,72.06
2019-03-05T10:51:44.435Z,72.06
2019-03-05T10:54:15.690Z,71.62
2019-03-05T10:56:46.037Z,71.44
2019-03-05T10:59:16.964Z,71.51
2019-03-05T11:01:49.955Z,71.49
2019-03-05T11:04:26.427Z,70.92
2019-03-05T11:06:55.926Z,70.98
2019-03-05T11:09:27.182Z,70.90
2019-03-05T11:12:05.280Z,70.69
2019-03-05T11:14:39.497Z,70.44
2019-03-05T11:17:09.869Z,70.50
2019-03-05T11:19:40.399Z,70.33
2019-03-05T11:22:13.282Z,70.29
2019-03-05T11:25:07.897Z,70.41
2019-03-05T11:27:39.351Z,70.12
2019-03-05T11:30:14.319Z,70.33
2019-03-05T11:32:47.429Z,70.24
2019-03-05T11:35:18.710Z,70.04
2019-03-05T11:37:50.803Z,69.74
2019-03-05T11:40:25.195Z,69.72
2019-03-05T11:42:59.296Z,69.44
2019-03-05T11:45:30.342Z,69.58
2019-03-05T11:48:02.518Z,69.38
2019-03-05T11:50:33.977Z,69.61
2019-03-05T11:53:08.146Z,69.31
2019-03-05T11:55:40.942Z,69.14
2019-03-05T11:58:12.984Z,69.21
2019-03-05T12:00:51.111Z,68.79
2019-03-05T12:03:21.999Z,68.94
2019-03-05T12:05:56.374Z,68.85
2019-03-05T12:08:29.057Z,68.73
2019-03-05T12:11:09.562Z,68.74
2019-03-05T12:13:47.923Z,68.72
2019-03-05T12:16:18.660Z,68.55
2019-03-05T12:18:50.809Z,67.90
2019-03-05T12:21:22.664Z,67.72
2019-03-05T12:23:52.510Z,67.64
2019-03-05T12:26:27.738Z,67.83
2019-03-05T12:29:01.965Z,67.32
2019-03-05T12:31:46.134Z,67.33
2019-03-05T12:34:19.026Z,67.39
2019-03-05T12:36:49.115Z,67.46
2019-03-05T12:39:20.255Z,67.51
2019-03-05T12:41:55.530Z,67.45
2019-03-05T12:44:25.706Z,67.41
2019-03-05T12:47:00.204Z,67.33
2019-03-05T12:49:30.939Z,66.91
2019-03-05T12:52:01.393Z,66.66
2019-03-05T12:54:45.546Z,66.49
2019-03-05T12:57:18.309Z,66.47
2019-03-05T12:59:50.471Z,66.45
2019-03-05T13:02:21.510Z,66.67
2019-03-05T13:04:52.607Z,66.66
2019-03-05T13:07:21.657Z,66.73
2019-03-05T13:09:56.990Z,66.84
2019-03-05T13:12:36.007Z,67.07
2019-03-05T13:15:08.878Z,67.13
2019-03-05T13:17:40.572Z,66.89
2019-03-05T13:20:16.257Z,66.56
2019-03-05T13:22:48.537Z,66.59
2019-03-05T13:28:01.447Z,67.00
2019-03-05T13:30:34.911Z,67.07
2019-03-05T13:33:07.112Z,67.14
2019-03-05T13:35:50.475Z,67.46
2019-03-05T13:38:22.484Z,67.33
2019-03-05T13:40:53.935Z,67.37
2019-03-05T13:43:29.175Z,67.61
2019-03-05T13:46:01.069Z,67.41
2019-03-05T13:49:18.004Z,67.80
2019-03-05T13:52:12.553Z,67.66
2019-03-05T13:55:08.005Z,67.78
2019-03-05T13:58:13.993Z,68.06
2019-03-05T14:01:12.016Z,68.21
2019-03-05T14:03:54.809Z,68.86
2019-03-05T14:06:39.229Z,69.02
2019-03-05T14:09:16.185Z,69.39
2019-03-05T14:11:52.387Z,69.69
2019-03-05T14:14:28.873Z,70.01
2019-03-05T14:17:10.129Z,70.59
2019-03-05T14:19:43.275Z,70.58
2019-03-05T14:22:14.758Z,70.89
2019-03-05T14:24:46.266Z,71.28
2019-03-05T14:27:16.884Z,71.28
2019-03-05T14:32:30.005Z,71.68
2019-03-05T14:35:11.277Z,71.93
2019-03-05T14:37:44.837Z,71.90
2019-03-05T14:40:24.556Z,72.09
2019-03-05T14:42:57.935Z,72.22
2019-03-05T14:45:59.309Z,72.23
2019-03-05T14:48:33.652Z,72.38
2019-03-05T14:51:12.641Z,72.23
2019-03-05T14:53:45.300Z,72.46
2019-03-05T14:56:18.764Z,72.83
2019-03-05T14:58:55.573Z,73.26
2019-03-05T15:01:28.169Z,73.12
2019-03-05T15:03:58.227Z,73.30
2019-03-05T15:06:29.333Z,73.73
2019-03-05T15:09:06.156Z,73.72
2019-03-05T15:11:37.389Z,73.73
2019-03-05T15:14:08.730Z,74.01
2019-03-05T15:16:55.493Z,73.96
2019-03-05T15:19:37.072Z,74.22
2019-03-05T15:22:11.745Z,74.57
2019-03-05T15:24:45.205Z,74.77
2019-03-05T15:27:26.328Z,74.55
2019-03-05T15:30:04.891Z,74.68
2019-03-05T15:32:37.259Z,74.79
2019-03-05T15:35:13.391Z,75.00
2019-03-05T15:37:50.815Z,75.05
2019-03-05T15:40:21.989Z,75.35
2019-03-05T15:43:10.441Z,75.61
2019-03-05T15:45:48.261Z,75.62
2019-03-05T15:48:20.898Z,75.58
2019-03-05T15:50:55.044Z,75.64
2019-03-05T15:53:30.462Z,75.85
2019-03-05T15:56:11.644Z,76.02
2019-03-05T15:58:43.279Z,76.01
2019-03-05T16:01:27.809Z,76.34
2019-03-05T16:04:09.498Z,76.49
2019-03-05T16:06:42.669Z,76.40
2019-03-05T16:09:25.734Z,76.35
2019-03-05T16:11:59.608Z,76.19
2019-03-05T16:14:35.297Z,76.08
2019-03-05T16:17:05.773Z,76.29
2019-03-05T16:19:36.851Z,76.00
2019-03-05T16:22:14.265Z,76.21
2019-03-05T16:24:43.641Z,76.18
2019-03-05T16:27:18.550Z,76.16
2019-03-05T16:29:55.779Z,76.19
2019-03-05T16:32:40.758Z,76.16
2019-03-05T16:35:18.443Z,76.25
2019-03-05T16:38:02.871Z,76.42
2019-03-05T16:40:44.543Z,76.26
2019-03-05T16:43:19.575Z,76.47
2019-03-05T16:46:02.188Z,76.26
2019-03-05T16:48:40.213Z,76.52
2019-03-05T16:51:19.514Z,76.56
2019-03-05T16:58:09.459Z,76.53
2019-03-05T17:01:49.075Z,76.64
2019-03-05T17:04:40.765Z,76.97
2019-03-05T17:07:28.205Z,76.99
2019-03-05T17:10:06.498Z,77.10
2019-03-05T17:12:39.791Z,77.18
2019-03-05T17:15:14.730Z,77.34
2019-03-05T17:17:45.355Z,77.57
2019-03-05T17:20:15.783Z,77.50
2019-03-05T17:22:50.472Z,77.50
2019-03-05T17:25:25.189Z,77.43
2019-03-05T17:27:59.160Z,77.44
2019-03-05T17:30:30.325Z,77.43
2019-03-05T17:33:01.749Z,77.59
2019-03-05T17:35:36.352Z,77.37
2019-03-05T17:38:09.142Z,77.50
2019-03-05T17:40:40.432Z,77.29
2019-03-05T17:43:12.832Z,77.21
2019-03-05T17:45:44.722Z,77.28
2019-03-05T17:48:17.815Z,77.26
2019-03-05T17:50:49.122Z,77.23
2019-03-05T17:53:20.193Z,77.23
2019-03-05T17:55:56.818Z,77.43
2019-03-05T17:58:29.675Z,77.75
2019-03-05T18:01:05.460Z,77.87
2019-03-05T18:06:13.980Z,77.98
2019-03-05T18:08:46.771Z,78.36
2019-03-05T18:11:18.737Z,78.36
2019-03-05T18:13:50.372Z,78.55
2019-03-05T18:16:19.989Z,78.74
2019-03-05T18:18:51.527Z,78.48
2019-03-05T18:21:21.407Z,78.59
2019-03-05T18:23:53.166Z,78.58
2019-03-05T18:26:28.443Z,78.65
2019-03-05T18:29:01.469Z,78.89
2019-03-05T18:31:33.007Z,78.79
2019-03-05T18:34:05.481Z,78.80
2019-03-05T18:36:37.920Z,78.83
2019-03-05T18:39:12.749Z,79.05
2019-03-05T18:41:42.631Z,78.91
2019-03-05T18:44:14.439Z,78.90
2019-03-05T18:46:46.212Z,78.85
2019-03-05T18:49:21.278Z,78.93
2019-03-05T18:51:51.307Z,78.95
2019-03-05T18:54:22.976Z,79.20
2019-03-05T18:56:54.992Z,78.97
2019-03-05T18:59:28.545Z,79.22
2019-03-05T19:02:00.481Z,79.18
2019-03-05T19:04:37.049Z,79.17
2019-03-05T19:07:08.843Z,79.24
2019-03-05T19:09:39.422Z,79.05
2019-03-05T19:12:12.419Z,79.27
2019-03-05T19:14:44.300Z,79.13
2019-03-05T19:17:13.415Z,79.17
2019-03-05T19:19:44.252Z,79.35
2019-03-05T19:22:15.074Z,79.56
2019-03-05T19:24:50.409Z,79.56
2019-03-05T19:27:27.267Z,79.40
2019-03-05T19:29:58.534Z,79.57
2019-03-05T19:32:29.204Z,79.72
2019-03-05T19:35:06.415Z,79.89
2019-03-05T19:37:36.637Z,79.98
2019-03-05T19:40:08.166Z,80.20
2019-03-05T19:42:40.994Z,80.29
2019-03-05T19:45:12.300Z,80.59
2019-03-05T19:47:47.357Z,80.58
2019-03-05T19:50:17.844Z,80.42
2019-03-05T19:52:55.628Z,80.67
2019-03-05T19:55:27.160Z,80.62
2019-03-05T19:58:01.782Z,80.87
2019-03-05T20:00:36.880Z,81.02
2019-03-05T20:03:07.800Z,81.19
2019-03-05T20:05:40.067Z,81.28
2019-03-05T20:08:08.339Z,81.34
2019-03-05T20:10:41.897Z,81.58
2019-03-05T20:13:11.489Z,81.59
2019-03-05T20:15:42.988Z,81.72
2019-03-05T20:18:16.880Z,81.67
2019-03-05T20:20:50.622Z,82.04
2019-03-05T20:23:21.405Z,81.91
2019-03-05T20:25:55.761Z,81.77
2019-03-05T20:28:26.780Z,82.23
2019-03-05T20:31:00.320Z,82.41
2019-03-05T20:33:30.776Z,82.59
2019-03-05T20:36:00.381Z,82.67
2019-03-05T20:38:33.341Z,82.71
2019-03-05T20:41:05.082Z,82.67
2019-03-05T20:43:37.956Z,82.85
2019-03-05T20:46:17.291Z,82.91
2019-03-05T20:48:46.466Z,82.96
2019-03-05T20:51:19.841Z,83.03
2019-03-05T20:53:50.928Z,82.91
2019-03-05T20:56:24.274Z,82.96
2019-03-05T20:58:54.985Z,82.92
2019-03-05T21:01:30.761Z,82.90
2019-03-05T21:04:00.982Z,82.60
2019-03-05T21:06:32.266Z,82.65
2019-03-05T21:09:06.855Z,82.67
2019-03-05T21:11:38.357Z,82.57
2019-03-05T21:14:10.165Z,82.66
2019-03-05T21:16:43.775Z,82.54
2019-03-05T21:19:13.756Z,82.51
2019-03-05T21:21:45.401Z,82.30
2019-03-05T21:24:15.407Z,82.22
2019-03-05T21:26:46.764Z,82.03
2019-03-05T21:29:17.383Z,81.86
2019-03-05T21:31:50.266Z,81.91
2019-03-05T21:34:22.678Z,81.69
2019-03-05T21:36:54.805Z,81.57
2019-03-05T21:39:25.679Z,81.59
2019-03-05T21:41:57.791Z,81.57
2019-03-05T21:44:30.508Z,81.46
2019-03-05T21:47:01.449Z,81.39
2019-03-05T21:49:31.512Z,81.37
2019-03-05T21:52:07.118Z,81.37
2019-03-05T21:54:43.778Z,81.24
2019-03-05T21:57:14.364Z,80.89
2019-03-05T21:59:44.357Z,80.94
2019-03-05T22:02:18.087Z,80.84
2019-03-05T22:04:53.398Z,80.67
2019-03-05T22:07:25.355Z,80.75
2019-03-05T22:09:55.915Z,80.73
2019-03-05T22:12:28.512Z,80.59
2019-03-05T22:15:04.535Z,80.43
2019-03-05T22:17:42.128Z,80.60
2019-03-05T22:20:13.334Z,80.35
2019-03-05T22:22:45.228Z,80.27
2019-03-05T22:25:16.891Z,80.28
2019-03-05T22:27:47.234Z,80.21
2019-03-05T22:30:19.566Z,80.01
2019-03-05T22:32:50.776Z,80.12
2019-03-05T22:35:21.511Z,79.92
2019-03-05T22:37:53.163Z,79.93
2019-03-05T22:40:24.962Z,79.89
2019-03-05T22:55:10.203Z,79.89
2019-03-05T22:57:44.523Z,79.79
2019-03-05T23:03:10.004Z,79.89
2019-03-05T23:05:46.740Z,79.86
2019-03-05T23:08:17.116Z,79.66
2019-03-05T23:10:46.999Z,79.55
2019-03-05T23:13:17.015Z,79.34
2019-03-05T23:15:48.733Z,79.37
2019-03-05T23:18:21.441Z,79.42
2019-03-05T23:20:54.269Z,79.46
2019-03-05T23:23:24.915Z,79.30
2019-03-05T23:25:55.317Z,79.38
2019-03-05T23:28:29.953Z,79.56
2019-03-05T23:31:06.110Z,79.46
2019-03-05T23:33:37.530Z,79.59
2019-03-05T23:36:14.282Z,79.64
2019-03-05T23:38:46.714Z,79.66
2019-03-05T23:41:18.132Z,79.65
2019-03-05T23:43:52.532Z,79.63
2019-03-05T23:46:32.291Z,79.53
2019-03-05T23:49:12.279Z,79.40
2019-03-05T23:51:42.354Z,79.41
2019-03-05T23:54:14.126Z,79.31
2019-03-05T23:56:49.563Z,79.43
2019-03-05T23:59:23.616Z,79.36
